Carter, Montana
Current Conditions -  °F | °C
As of 5:56 PM on Saturday 22 Nov 2014 (Local Time) from KGFA Reporting Station
Overcast Overcast  
Wind Chill: 30°   Ceiling: 9500
Heat Index: 39°   Visibility: 10mi
Dew Point: 20°   Wind: 15mph
Humidity: 46%   Direction: 260°W
Pressure: 29.51"   Gusts: 25mph
Location:  47.78°N, 110.96°W
Report Text: KGFA 230056Z AUTO 26013G22KT 10SM OVC095 04/M07 A2951 RMK AO2 PK WND 26026/00 SLP012 T00371069
Loading
Personal Weather Stations






























Interactive Weather Map New forecast layout! Learn more

10-Day Weather Forecast

Advertisements
Track Severe Weather on mobile